sensor_id;sensor_type;location;lat;lon;timestamp;pressure;altitude;pressure_sealevel;temperature;humidity
51603;BME280;37954;51.980;5.850;2023-01-27T00:01:06;102170.78;;;5.47;82.43
51603;BME280;37954;51.980;5.850;2023-01-27T00:05:17;102166.91;;;5.41;82.28
51603;BME280;37954;51.980;5.850;2023-01-27T00:09:29;102169.94;;;5.46;82.20
51603;BME280;37954;51.980;5.850;2023-01-27T00:13:40;102160.28;;;5.45;82.32
51603;BME280;37954;51.980;5.850;2023-01-27T00:17:52;102156.63;;;5.46;82.41
51603;BME280;37954;51.980;5.850;2023-01-27T00:22:04;102162.34;;;5.51;82.11
51603;BME280;37954;51.980;5.850;2023-01-27T00:26:34;102161.13;;;5.46;82.70
51603;BME280;37954;51.980;5.850;2023-01-27T00:30:45;102161.66;;;5.49;82.50
51603;BME280;37954;51.980;5.850;2023-01-27T00:34:57;102153.13;;;5.46;82.60
51603;BME280;37954;51.980;5.850;2023-01-27T00:39:10;102164.66;;;5.54;82.50
51603;BME280;37954;51.980;5.850;2023-01-27T00:43:22;102151.66;;;5.51;82.40
51603;BME280;37954;51.980;5.850;2023-01-27T00:47:33;102152.66;;;5.50;82.32
51603;BME280;37954;51.980;5.850;2023-01-27T00:51:45;102148.25;;;5.41;82.42
51603;BME280;37954;51.980;5.850;2023-01-27T00:55:57;102170.25;;;5.43;82.34
51603;BME280;37954;51.980;5.850;2023-01-27T01:00:09;102173.75;;;5.44;82.06
51603;BME280;37954;51.980;5.850;2023-01-27T01:04:22;102167.88;;;5.40;82.47
51603;BME280;37954;51.980;5.850;2023-01-27T01:08:35;102163.03;;;5.36;82.46
51603;BME280;37954;51.980;5.850;2023-01-27T01:12:47;102174.75;;;5.43;82.38
51603;BME280;37954;51.980;5.850;2023-01-27T01:16:58;102173.91;;;5.42;81.98
51603;BME280;37954;51.980;5.850;2023-01-27T01:21:10;102188.06;;;5.43;82.20
51603;BME280;37954;51.980;5.850;2023-01-27T01:25:22;102176.81;;;5.31;82.40
51603;BME280;37954;51.980;5.850;2023-01-27T01:29:34;102193.63;;;5.32;82.46
51603;BME280;37954;51.980;5.850;2023-01-27T01:33:46;102191.66;;;5.34;82.50
51603;BME280;37954;51.980;5.850;2023-01-27T01:37:58;102189.75;;;5.26;82.00
51603;BME280;37954;51.980;5.850;2023-01-27T01:42:09;102195.53;;;5.21;82.06
51603;BME280;37954;51.980;5.850;2023-01-27T01:46:21;102196.16;;;5.15;82.08
51603;BME280;37954;51.980;5.850;2023-01-27T01:50:33;102201.09;;;5.10;81.62
51603;BME280;37954;51.980;5.850;2023-01-27T01:54:49;102196.47;;;5.12;82.53
51603;BME280;37954;51.980;5.850;2023-01-27T01:59:14;102193.09;;;5.10;82.24
51603;BME280;37954;51.980;5.850;2023-01-27T02:03:27;102191.97;;;5.13;82.23
51603;BME280;37954;51.980;5.850;2023-01-27T02:12:00;102194.94;;;5.10;82.68
51603;BME280;37954;51.980;5.850;2023-01-27T02:16:12;102203.59;;;5.12;83.13
51603;BME280;37954;51.980;5.850;2023-01-27T02:24:48;102203.59;;;5.12;83.22
51603;BME280;37954;51.980;5.850;2023-01-27T02:29:08;102214.81;;;5.15;82.74
51603;BME280;37954;51.980;5.850;2023-01-27T02:33:21;102204.16;;;5.15;82.91
51603;BME280;37954;51.980;5.850;2023-01-27T02:37:33;102210.06;;;5.09;83.51
51603;BME280;37954;51.980;5.850;2023-01-27T02:41:49;102209.78;;;5.12;83.56
51603;BME280;37954;51.980;5.850;2023-01-27T02:46:03;102209.38;;;5.07;84.06
51603;BME280;37954;51.980;5.850;2023-01-27T02:50:15;102210.38;;;5.06;84.04
51603;BME280;37954;51.980;5.850;2023-01-27T02:54:28;102218.34;;;5.06;84.37
51603;BME280;37954;51.980;5.850;2023-01-27T02:58:41;102219.81;;;5.01;84.30
51603;BME280;37954;51.980;5.850;2023-01-27T03:02:57;102215.84;;;5.05;84.76
51603;BME280;37954;51.980;5.850;2023-01-27T03:07:09;102218.81;;;5.02;84.30
51603;BME280;37954;51.980;5.850;2023-01-27T03:11:20;102224.31;;;5.00;84.82
51603;BME280;37954;51.980;5.850;2023-01-27T03:15:51;102233.97;;;5.01;84.91
51603;BME280;37954;51.980;5.850;2023-01-27T03:20:24;102235.78;;;5.01;84.94
51603;BME280;37954;51.980;5.850;2023-01-27T03:24:36;102223.22;;;4.93;84.59
51603;BME280;37954;51.980;5.850;2023-01-27T03:28:50;102232.03;;;4.94;84.09
51603;BME280;37954;51.980;5.850;2023-01-27T03:33:25;102228.97;;;4.88;84.21
51603;BME280;37954;51.980;5.850;2023-01-27T03:37:36;102242.94;;;5.00;84.25
51603;BME280;37954;51.980;5.850;2023-01-27T03:42:06;102239.75;;;4.97;83.77
51603;BME280;37954;51.980;5.850;2023-01-27T03:46:38;102240.19;;;4.92;83.95
51603;BME280;37954;51.980;5.850;2023-01-27T03:50:50;102251.91;;;4.99;83.13
51603;BME280;37954;51.980;5.850;2023-01-27T03:55:05;102243.69;;;4.93;83.04
51603;BME280;37954;51.980;5.850;2023-01-27T03:59:17;102235.09;;;4.99;83.53
51603;BME280;37954;51.980;5.850;2023-01-27T04:03:31;102244.16;;;5.06;82.54
51603;BME280;37954;51.980;5.850;2023-01-27T04:08:04;102228.63;;;5.01;82.66
51603;BME280;37954;51.980;5.850;2023-01-27T04:12:15;102229.31;;;5.03;82.37
51603;BME280;37954;51.980;5.850;2023-01-27T04:16:27;102239.94;;;5.03;81.71
51603;BME280;37954;51.980;5.850;2023-01-27T04:20:40;102244.97;;;5.06;81.48
51603;BME280;37954;51.980;5.850;2023-01-27T04:24:52;102249.19;;;5.09;81.44
51603;BME280;37954;51.980;5.850;2023-01-27T04:29:04;102249.19;;;5.09;81.10
51603;BME280;37954;51.980;5.850;2023-01-27T04:33:17;102260.38;;;5.12;81.31
51603;BME280;37954;51.980;5.850;2023-01-27T04:37:29;102257.72;;;5.12;81.31
51603;BME280;37954;51.980;5.850;2023-01-27T04:41:41;102267.22;;;5.15;80.80
51603;BME280;37954;51.980;5.850;2023-01-27T04:45:53;102260.44;;;5.20;81.46
51603;BME280;37954;51.980;5.850;2023-01-27T04:50:05;102257.28;;;5.17;81.05
51603;BME280;37954;51.980;5.850;2023-01-27T04:54:17;102276.81;;;5.25;80.88
51603;BME280;37954;51.980;5.850;2023-01-27T04:58:28;102275.06;;;5.16;80.88
51603;BME280;37954;51.980;5.850;2023-01-27T05:02:40;102269.91;;;5.15;80.27
51603;BME280;37954;51.980;5.850;2023-01-27T05:06:52;102275.78;;;5.18;80.45
51603;BME280;37954;51.980;5.850;2023-01-27T05:11:04;102279.50;;;5.25;81.02
51603;BME280;37954;51.980;5.850;2023-01-27T05:15:16;102291.09;;;5.34;80.95
51603;BME280;37954;51.980;5.850;2023-01-27T05:19:27;102268.97;;;5.24;80.46
51603;BME280;37954;51.980;5.850;2023-01-27T05:23:39;102268.53;;;5.29;80.33
51603;BME280;37954;51.980;5.850;2023-01-27T05:27:52;102276.69;;;5.27;79.84
51603;BME280;37954;51.980;5.850;2023-01-27T05:32:04;102278.59;;;5.35;79.98
51603;BME280;37954;51.980;5.850;2023-01-27T05:36:19;102280.88;;;5.30;79.55
51603;BME280;37954;51.980;5.850;2023-01-27T05:40:31;102272.19;;;5.28;79.47
51603;BME280;37954;51.980;5.850;2023-01-27T05:44:43;102277.91;;;5.33;79.26
51603;BME280;37954;51.980;5.850;2023-01-27T05:48:57;102280.56;;;5.33;79.75
51603;BME280;37954;51.980;5.850;2023-01-27T05:53:09;102280.09;;;5.37;79.75
51603;BME280;37954;51.980;5.850;2023-01-27T05:57:21;102300.97;;;5.42;79.67
51603;BME280;37954;51.980;5.850;2023-01-27T06:01:33;102291.25;;;5.33;79.28
51603;BME280;37954;51.980;5.850;2023-01-27T06:05:55;102301.34;;;5.29;79.71
51603;BME280;37954;51.980;5.850;2023-01-27T06:10:08;102293.50;;;5.28;79.62
51603;BME280;37954;51.980;5.850;2023-01-27T06:14:20;102298.44;;;5.22;79.59
51603;BME280;37954;51.980;5.850;2023-01-27T06:18:31;102301.72;;;5.16;79.81
51603;BME280;37954;51.980;5.850;2023-01-27T06:22:43;102311.25;;;5.19;79.72
51603;BME280;37954;51.980;5.850;2023-01-27T06:26:55;102326.31;;;5.28;79.79
51603;BME280;37954;51.980;5.850;2023-01-27T06:31:09;102313.28;;;5.25;80.24
51603;BME280;37954;51.980;5.850;2023-01-27T06:35:21;102323.72;;;5.18;80.02
51603;BME280;37954;51.980;5.850;2023-01-27T06:39:32;102329.19;;;5.17;80.32
51603;BME280;37954;51.980;5.850;2023-01-27T06:43:44;102318.72;;;5.06;80.19
51603;BME280;37954;51.980;5.850;2023-01-27T06:47:57;102321.31;;;4.98;80.53
51603;BME280;37954;51.980;5.850;2023-01-27T06:52:09;102322.69;;;5.02;80.52
51603;BME280;37954;51.980;5.850;2023-01-27T06:56:21;102328.69;;;5.04;80.40
51603;BME280;37954;51.980;5.850;2023-01-27T07:00:33;102325.50;;;5.00;80.44
51603;BME280;37954;51.980;5.850;2023-01-27T07:04:45;102317.09;;;4.95;80.61
51603;BME280;37954;51.980;5.850;2023-01-27T07:08:56;102325.97;;;4.86;80.37
51603;BME280;37954;51.980;5.850;2023-01-27T07:13:10;102323.41;;;4.67;80.50
51603;BME280;37954;51.980;5.850;2023-01-27T07:17:22;102333.78;;;4.50;80.24
51603;BME280;37954;51.980;5.850;2023-01-27T07:21:33;102330.03;;;4.43;80.92
51603;BME280;37954;51.980;5.850;2023-01-27T07:25:45;102340.00;;;4.32;81.10
51603;BME280;37954;51.980;5.850;2023-01-27T07:29:56;102335.69;;;4.21;81.55
51603;BME280;37954;51.980;5.850;2023-01-27T07:34:08;102342.41;;;4.15;81.66
51603;BME280;37954;51.980;5.850;2023-01-27T07:38:20;102346.75;;;4.07;82.03
51603;BME280;37954;51.980;5.850;2023-01-27T07:42:32;102354.03;;;4.05;81.49
51603;BME280;37954;51.980;5.850;2023-01-27T07:46:43;102364.81;;;4.03;82.09
51603;BME280;37954;51.980;5.850;2023-01-27T07:50:55;102362.84;;;4.05;81.92
51603;BME280;37954;51.980;5.850;2023-01-27T07:55:07;102362.44;;;4.10;81.88
51603;BME280;37954;51.980;5.850;2023-01-27T07:59:18;102362.41;;;4.19;81.46
51603;BME280;37954;51.980;5.850;2023-01-27T08:03:30;102377.41;;;4.30;81.73
51603;BME280;37954;51.980;5.850;2023-01-27T08:07:42;102381.16;;;4.37;80.85
51603;BME280;37954;51.980;5.850;2023-01-27T08:11:53;102389.53;;;4.52;80.61
51603;BME280;37954;51.980;5.850;2023-01-27T08:16:08;102378.88;;;4.52;80.70
51603;BME280;37954;51.980;5.850;2023-01-27T08:20:22;102385.88;;;4.63;80.42
51603;BME280;37954;51.980;5.850;2023-01-27T08:24:34;102398.03;;;4.75;80.50
51603;BME280;37954;51.980;5.850;2023-01-27T08:28:47;102413.16;;;4.74;79.86
51603;BME280;37954;51.980;5.850;2023-01-27T08:32:58;102409.09;;;4.80;79.54
51603;BME280;37954;51.980;5.850;2023-01-27T08:37:10;102406.53;;;4.88;80.17
51603;BME280;37954;51.980;5.850;2023-01-27T08:41:24;102416.75;;;4.93;79.48
51603;BME280;37954;51.980;5.850;2023-01-27T08:45:35;102409.59;;;4.93;79.47
51603;BME280;37954;51.980;5.850;2023-01-27T08:49:47;102425.53;;;5.03;78.81
51603;BME280;37954;51.980;5.850;2023-01-27T08:53:59;102432.41;;;5.05;78.44
51603;BME280;37954;51.980;5.850;2023-01-27T08:58:11;102414.88;;;5.03;78.62
51603;BME280;37954;51.980;5.850;2023-01-27T09:02:23;102431.56;;;5.05;78.58
51603;BME280;37954;51.980;5.850;2023-01-27T09:06:34;102430.72;;;5.04;79.10
51603;BME280;37954;51.980;5.850;2023-01-27T09:10:46;102415.63;;;4.95;78.74
51603;BME280;37954;51.980;5.850;2023-01-27T09:14:58;102432.41;;;5.05;78.62
51603;BME280;37954;51.980;5.850;2023-01-27T09:19:10;102443.34;;;5.02;78.18
51603;BME280;37954;51.980;5.850;2023-01-27T09:23:22;102446.00;;;5.02;78.80
51603;BME280;37954;51.980;5.850;2023-01-27T09:27:33;102468.72;;;5.06;78.58
51603;BME280;37954;51.980;5.850;2023-01-27T09:31:50;102462.56;;;4.96;78.74
51603;BME280;37954;51.980;5.850;2023-01-27T09:36:16;102478.00;;;4.93;78.72
51603;BME280;37954;51.980;5.850;2023-01-27T09:40:31;102484.72;;;4.97;79.36
51603;BME280;37954;51.980;5.850;2023-01-27T09:49:31;102477.00;;;4.94;79.52
51603;BME280;37954;51.980;5.850;2023-01-27T10:02:45;102489.72;;;5.09;79.92
51603;BME280;37954;51.980;5.850;2023-01-27T10:07:21;102475.47;;;5.01;79.30
51603;BME280;37954;51.980;5.850;2023-01-27T10:25:21;102483.78;;;5.35;79.08
51603;BME280;37954;51.980;5.850;2023-01-27T10:29:40;102466.53;;;5.29;79.44
51603;BME280;37954;51.980;5.850;2023-01-27T10:33:56;102465.13;;;5.35;78.68
51603;BME280;37954;51.980;5.850;2023-01-27T10:38:40;102469.16;;;5.39;78.59
51603;BME280;37954;51.980;5.850;2023-01-27T10:51:49;102483.59;;;5.46;78.17
51603;BME280;37954;51.980;5.850;2023-01-27T11:00:36;102467.03;;;5.42;78.67
51603;BME280;37954;51.980;5.850;2023-01-27T11:05:17;102462.41;;;5.44;77.38
51603;BME280;37954;51.980;5.850;2023-01-27T11:09:33;102464.63;;;5.49;77.85
51603;BME280;37954;51.980;5.850;2023-01-27T11:13:46;102466.25;;;5.59;77.89
51603;BME280;37954;51.980;5.850;2023-01-27T11:22:20;102457.03;;;5.81;77.71
51603;BME280;37954;51.980;5.850;2023-01-27T11:26:42;102454.66;;;6.06;77.29
51603;BME280;37954;51.980;5.850;2023-01-27T11:31:04;102447.16;;;6.09;77.08
51603;BME280;37954;51.980;5.850;2023-01-27T11:35:21;102445.34;;;6.10;76.39
51603;BME280;37954;51.980;5.850;2023-01-27T11:39:32;102445.13;;;6.21;76.35
51603;BME280;37954;51.980;5.850;2023-01-27T11:43:44;102429.81;;;6.23;76.42
51603;BME280;37954;51.980;5.850;2023-01-27T11:47:58;102434.31;;;6.22;75.37
51603;BME280;37954;51.980;5.850;2023-01-27T11:52:20;102420.78;;;6.24;75.47
51603;BME280;37954;51.980;5.850;2023-01-27T11:56:33;102421.16;;;6.29;74.87
51603;BME280;37954;51.980;5.850;2023-01-27T12:00:49;102425.53;;;6.30;74.64
51603;BME280;37954;51.980;5.850;2023-01-27T12:09:31;102425.19;;;6.51;74.12
51603;BME280;37954;51.980;5.850;2023-01-27T12:13:57;102413.84;;;6.49;74.20
51603;BME280;37954;51.980;5.850;2023-01-27T12:18:14;102413.13;;;6.47;73.79
51603;BME280;37954;51.980;5.850;2023-01-27T12:22:29;102417.63;;;6.46;73.42
51603;BME280;37954;51.980;5.850;2023-01-27T12:26:43;102396.44;;;6.45;73.08
51603;BME280;37954;51.980;5.850;2023-01-27T12:35:22;102404.25;;;6.64;73.45
51603;BME280;37954;51.980;5.850;2023-01-27T12:39:53;102403.38;;;6.55;73.25
51603;BME280;37954;51.980;5.850;2023-01-27T12:44:16;102398.72;;;6.57;73.36
51603;BME280;37954;51.980;5.850;2023-01-27T12:48:30;102391.72;;;6.56;73.26
51603;BME280;37954;51.980;5.850;2023-01-27T12:52:51;102390.72;;;6.57;73.00
51603;BME280;37954;51.980;5.850;2023-01-27T12:57:04;102382.03;;;6.55;72.86
51603;BME280;37954;51.980;5.850;2023-01-27T13:01:25;102388.97;;;6.48;73.21
51603;BME280;37954;51.980;5.850;2023-01-27T13:05:39;102387.69;;;6.35;72.89
51603;BME280;37954;51.980;5.850;2023-01-27T13:10:01;102408.41;;;6.41;72.91
51603;BME280;37954;51.980;5.850;2023-01-27T13:14:17;102393.34;;;6.32;73.28
51603;BME280;37954;51.980;5.850;2023-01-27T13:18:33;102398.94;;;6.20;72.96
51603;BME280;37954;51.980;5.850;2023-01-27T13:22:55;102395.44;;;6.20;73.35
51603;BME280;37954;51.980;5.850;2023-01-27T13:27:15;102397.25;;;6.19;73.04
51603;BME280;37954;51.980;5.850;2023-01-27T13:35:54;102387.13;;;6.23;73.08
51603;BME280;37954;51.980;5.850;2023-01-27T13:40:30;102403.78;;;6.25;73.37
51603;BME280;37954;51.980;5.850;2023-01-27T13:44:55;102399.16;;;6.09;73.37
51603;BME280;37954;51.980;5.850;2023-01-27T13:49:24;102405.16;;;6.11;73.29
51603;BME280;37954;51.980;5.850;2023-01-27T13:53:40;102415.16;;;6.09;73.19
51603;BME280;37954;51.980;5.850;2023-01-27T14:07:46;102416.66;;;5.94;73.35
51603;BME280;37954;51.980;5.850;2023-01-27T14:17:21;102421.22;;;5.84;74.00
51603;BME280;37954;51.980;5.850;2023-01-27T14:21:41;102415.84;;;5.93;74.04
51603;BME280;37954;51.980;5.850;2023-01-27T14:30:39;102424.63;;;5.76;74.11
51603;BME280;37954;51.980;5.850;2023-01-27T14:48:39;102445.25;;;5.74;75.32
51603;BME280;37954;51.980;5.850;2023-01-27T14:57:59;102444.81;;;5.79;75.01
51603;BME280;37954;51.980;5.850;2023-01-27T15:07:19;102454.03;;;5.67;74.84
51603;BME280;37954;51.980;5.850;2023-01-27T15:12:02;102453.59;;;5.71;74.90
51603;BME280;37954;51.980;5.850;2023-01-27T15:16:24;102460.13;;;5.77;75.21
51603;BME280;37954;51.980;5.850;2023-01-27T15:25:45;102461.59;;;5.71;74.90
51603;BME280;37954;51.980;5.850;2023-01-27T15:30:24;102464.63;;;5.76;75.28
51603;BME280;37954;51.980;5.850;2023-01-27T15:34:36;102458.22;;;5.69;75.64
51603;BME280;37954;51.980;5.850;2023-01-27T15:39:15;102465.38;;;5.69;75.48
51603;BME280;37954;51.980;5.850;2023-01-27T15:43:31;102467.91;;;5.70;75.39
51603;BME280;37954;51.980;5.850;2023-01-27T15:47:43;102465.38;;;5.69;75.43
51603;BME280;37954;51.980;5.850;2023-01-27T15:52:08;102480.13;;;5.63;75.14
51603;BME280;37954;51.980;5.850;2023-01-27T15:56:45;102467.66;;;5.64;75.13
51603;BME280;37954;51.980;5.850;2023-01-27T16:00:59;102461.47;;;5.63;75.00
51603;BME280;37954;51.980;5.850;2023-01-27T16:05:35;102478.03;;;5.67;75.20
51603;BME280;37954;51.980;5.850;2023-01-27T16:09:48;102465.13;;;5.62;74.88
51603;BME280;37954;51.980;5.850;2023-01-27T16:18:24;102463.88;;;5.56;75.49
51603;BME280;37954;51.980;5.850;2023-01-27T16:22:39;102476.78;;;5.61;75.02
51603;BME280;37954;51.980;5.850;2023-01-27T16:26:56;102477.22;;;5.56;75.21
51603;BME280;37954;51.980;5.850;2023-01-27T16:31:25;102489.41;;;5.59;75.13
51603;BME280;37954;51.980;5.850;2023-01-27T16:36:15;102481.84;;;5.54;74.91
51603;BME280;37954;51.980;5.850;2023-01-27T16:40:32;102490.69;;;5.55;75.28
51603;BME280;37954;51.980;5.850;2023-01-27T16:44:46;102494.88;;;5.57;75.42
51603;BME280;37954;51.980;5.850;2023-01-27T16:49:02;102495.34;;;5.53;75.44
51603;BME280;37954;51.980;5.850;2023-01-27T16:53:20;102507.84;;;5.52;74.57
51603;BME280;37954;51.980;5.850;2023-01-27T16:57:34;102507.28;;;5.49;75.00
51603;BME280;37954;51.980;5.850;2023-01-27T17:01:59;102507.56;;;5.46;74.80
51603;BME280;37954;51.980;5.850;2023-01-27T17:06:16;102520.59;;;5.49;75.04
51603;BME280;37954;51.980;5.850;2023-01-27T17:16:34;102525.66;;;5.42;74.96
51603;BME280;37954;51.980;5.850;2023-01-27T17:20:46;102520.09;;;5.36;74.62
51603;BME280;37954;51.980;5.850;2023-01-27T17:25:05;102532.59;;;5.35;74.15
51603;BME280;37954;51.980;5.850;2023-01-27T17:29:46;102533.09;;;5.39;73.85
51603;BME280;37954;51.980;5.850;2023-01-27T17:33:59;102531.03;;;5.33;73.92
51603;BME280;37954;51.980;5.850;2023-01-27T17:38:14;102552.59;;;5.39;73.11
51603;BME280;37954;51.980;5.850;2023-01-27T17:42:31;102543.38;;;5.34;73.24
51603;BME280;37954;51.980;5.850;2023-01-27T17:46:43;102534.41;;;5.35;73.57
51603;BME280;37954;51.980;5.850;2023-01-27T17:50:54;102549.56;;;5.34;73.04
51603;BME280;37954;51.980;5.850;2023-01-27T17:55:31;102548.56;;;5.35;73.00
51603;BME280;37954;51.980;5.850;2023-01-27T17:59:53;102557.22;;;5.37;73.06
51603;BME280;37954;51.980;5.850;2023-01-27T18:04:07;102562.56;;;5.37;73.34
51603;BME280;37954;51.980;5.850;2023-01-27T18:08:21;102557.97;;;5.30;73.20
51603;BME280;37954;51.980;5.850;2023-01-27T18:12:35;102569.31;;;5.32;73.42
51603;BME280;37954;51.980;5.850;2023-01-27T18:17:04;102572.28;;;5.29;74.01
51603;BME280;37954;51.980;5.850;2023-01-27T18:21:24;102570.59;;;5.28;73.70
51603;BME280;37954;51.980;5.850;2023-01-27T18:25:36;102584.06;;;5.26;73.37
51603;BME280;37954;51.980;5.850;2023-01-27T18:29:54;102571.72;;;5.25;74.06
51603;BME280;37954;51.980;5.850;2023-01-27T18:34:26;102581.38;;;5.26;73.70
51603;BME280;37954;51.980;5.850;2023-01-27T18:38:45;102588.53;;;5.25;73.95
51603;BME280;37954;51.980;5.850;2023-01-27T18:43:02;102596.94;;;5.21;74.13
51603;BME280;37954;51.980;5.850;2023-01-27T18:51:28;102583.94;;;5.08;73.09
51603;BME280;37954;51.980;5.850;2023-01-27T18:55:40;102602.44;;;5.19;73.22
51603;BME280;37954;51.980;5.850;2023-01-27T18:59:52;102601.63;;;5.19;73.37
51603;BME280;37954;51.980;5.850;2023-01-27T19:04:09;102600.06;;;5.16;73.38
51603;BME280;37954;51.980;5.850;2023-01-27T19:08:23;102603.00;;;5.13;73.45
51603;BME280;37954;51.980;5.850;2023-01-27T19:12:35;102606.66;;;5.12;73.75
51603;BME280;37954;51.980;5.850;2023-01-27T19:16:46;102617.72;;;5.17;73.66
51603;BME280;37954;51.980;5.850;2023-01-27T19:20:59;102605.66;;;5.13;73.55
51603;BME280;37954;51.980;5.850;2023-01-27T19:25:18;102615.91;;;5.18;73.97
51603;BME280;37954;51.980;5.850;2023-01-27T19:29:30;102607.06;;;5.17;74.18
51603;BME280;37954;51.980;5.850;2023-01-27T19:33:41;102594.88;;;5.15;74.20
51603;BME280;37954;51.980;5.850;2023-01-27T19:37:56;102605.25;;;5.18;73.94
51603;BME280;37954;51.980;5.850;2023-01-27T19:42:14;102613.09;;;5.19;74.27
51603;BME280;37954;51.980;5.850;2023-01-27T19:46:26;102616.75;;;5.18;74.31
51603;BME280;37954;51.980;5.850;2023-01-27T19:50:38;102615.22;;;5.16;74.21
51603;BME280;37954;51.980;5.850;2023-01-27T19:54:49;102621.50;;;5.15;74.50
51603;BME280;37954;51.980;5.850;2023-01-27T19:59:01;102616.47;;;5.12;74.47
51603;BME280;37954;51.980;5.850;2023-01-27T20:03:13;102623.75;;;5.10;74.38
51603;BME280;37954;51.980;5.850;2023-01-27T20:07:24;102617.88;;;4.97;74.50
51603;BME280;37954;51.980;5.850;2023-01-27T20:11:38;102628.66;;;4.95;74.29
51603;BME280;37954;51.980;5.850;2023-01-27T20:15:50;102619.13;;;4.93;74.59
51603;BME280;37954;51.980;5.850;2023-01-27T20:20:02;102615.63;;;4.92;74.71
51603;BME280;37954;51.980;5.850;2023-01-27T20:24:15;102630.22;;;4.98;74.72
51603;BME280;37954;51.980;5.850;2023-01-27T20:28:28;102628.81;;;4.94;74.67
51603;BME280;37954;51.980;5.850;2023-01-27T20:32:39;102621.66;;;4.94;74.59
51603;BME280;37954;51.980;5.850;2023-01-27T20:37:22;102640.28;;;4.94;74.77
51603;BME280;37954;51.980;5.850;2023-01-27T20:41:34;102629.22;;;4.89;74.14
51603;BME280;37954;51.980;5.850;2023-01-27T20:45:46;102615.06;;;4.88;74.53
51603;BME280;37954;51.980;5.850;2023-01-27T20:49:57;102621.66;;;4.84;74.37
51603;BME280;37954;51.980;5.850;2023-01-27T20:54:10;102636.09;;;4.92;74.59
51603;BME280;37954;51.980;5.850;2023-01-27T20:58:22;102625.13;;;4.85;74.88
51603;BME280;37954;51.980;5.850;2023-01-27T21:02:33;102627.66;;;4.86;74.57
51603;BME280;37954;51.980;5.850;2023-01-27T21:06:45;102625.00;;;4.86;75.02
51603;BME280;37954;51.980;5.850;2023-01-27T21:11:04;102630.06;;;4.80;74.37
51603;BME280;37954;51.980;5.850;2023-01-27T21:15:17;102631.03;;;4.79;74.30
51603;BME280;37954;51.980;5.850;2023-01-27T21:19:29;102636.06;;;4.72;74.66
51603;BME280;37954;51.980;5.850;2023-01-27T21:23:41;102631.84;;;4.70;74.87
51603;BME280;37954;51.980;5.850;2023-01-27T21:27:52;102624.16;;;4.67;74.72
51603;BME280;37954;51.980;5.850;2023-01-27T21:32:04;102627.81;;;4.66;74.55
51603;BME280;37954;51.980;5.850;2023-01-27T21:36:16;102634.13;;;4.65;73.78
51603;BME280;37954;51.980;5.850;2023-01-27T21:40:29;102616.03;;;4.59;73.25
51603;BME280;37954;51.980;5.850;2023-01-27T21:44:41;102614.47;;;4.56;73.51
51603;BME280;37954;51.980;5.850;2023-01-27T21:49:11;102608.56;;;4.52;73.16
51603;BME280;37954;51.980;5.850;2023-01-27T21:53:22;102613.63;;;4.55;73.09
51603;BME280;37954;51.980;5.850;2023-01-27T21:57:34;102615.88;;;4.60;73.58
51603;BME280;37954;51.980;5.850;2023-01-27T22:01:46;102602.84;;;4.57;72.85
51603;BME280;37954;51.980;5.850;2023-01-27T22:05:58;102605.66;;;4.55;73.12
51603;BME280;37954;51.980;5.850;2023-01-27T22:10:14;102606.75;;;4.53;72.96
51603;BME280;37954;51.980;5.850;2023-01-27T22:14:27;102613.22;;;4.60;72.80
51603;BME280;37954;51.980;5.850;2023-01-27T22:18:39;102597.22;;;4.50;72.85
51603;BME280;37954;51.980;5.850;2023-01-27T22:22:52;102593.88;;;4.48;72.99
51603;BME280;37954;51.980;5.850;2023-01-27T22:27:04;102599.22;;;4.48;72.53
51603;BME280;37954;51.980;5.850;2023-01-27T22:31:16;102594.28;;;4.44;72.87
51603;BME280;37954;51.980;5.850;2023-01-27T22:35:28;102593.31;;;4.45;72.67
51603;BME280;37954;51.980;5.850;2023-01-27T22:39:39;102602.97;;;4.55;72.59
51603;BME280;37954;51.980;5.850;2023-01-27T22:43:52;102582.94;;;4.51;72.86
51603;BME280;37954;51.980;5.850;2023-01-27T22:48:04;102570.22;;;4.45;73.00
51603;BME280;37954;51.980;5.850;2023-01-27T22:52:16;102598.81;;;4.63;72.68
51603;BME280;37954;51.980;5.850;2023-01-27T22:56:28;102595.44;;;4.61;72.24
51603;BME280;37954;51.980;5.850;2023-01-27T23:00:39;102585.75;;;4.60;72.75
51603;BME280;37954;51.980;5.850;2023-01-27T23:04:51;102583.94;;;4.60;72.98
51603;BME280;37954;51.980;5.850;2023-01-27T23:09:03;102585.34;;;4.64;72.63
51603;BME280;37954;51.980;5.850;2023-01-27T23:13:15;102589.69;;;4.65;73.09
51603;BME280;37954;51.980;5.850;2023-01-27T23:17:27;102589.69;;;4.55;72.72
51603;BME280;37954;51.980;5.850;2023-01-27T23:21:38;102593.19;;;4.56;73.00
51603;BME280;37954;51.980;5.850;2023-01-27T23:25:50;102583.50;;;4.55;73.28
51603;BME280;37954;51.980;5.850;2023-01-27T23:30:03;102595.72;;;4.67;73.34
51603;BME280;37954;51.980;5.850;2023-01-27T23:34:15;102587.88;;;4.66;73.33
51603;BME280;37954;51.980;5.850;2023-01-27T23:38:27;102598.22;;;4.69;73.24
51603;BME280;37954;51.980;5.850;2023-01-27T23:42:44;102580.84;;;4.55;73.58
51603;BME280;37954;51.980;5.850;2023-01-27T23:46:56;102588.56;;;4.58;73.67
51603;BME280;37954;51.980;5.850;2023-01-27T23:51:09;102602.88;;;4.67;73.22
51603;BME280;37954;51.980;5.850;2023-01-27T23:55:23;102592.38;;;4.65;73.44
51603;BME280;37954;51.980;5.850;2023-01-27T23:59:35;102581.41;;;4.59;73.48
